Time;durP1;ratioP1;P1;durP2;ratioP2;P2;SDS_P1;SDS_P2;PMS_P1;PMS_P2;Temp;Humidity;BMP_temperature;BMP_pressure;BME280_temperature;BME280_humidity;BME280_pressure;Samples;Min_cycle;Max_cycle;Signal;HPM_P1;HPM_P2
2021/10/15 00:01:56;;;;;;;0.00;0.00;;;12.70;99.90;;;;;;6247752;22;20448;-82
2021/10/15 00:04:24;;;;;;;0.00;0.00;;;12.70;99.90;;;;;;6297990;22;20463;-81
2021/10/15 00:06:51;;;;;;;0.00;0.00;;;12.70;99.90;;;;;;6298100;22;20332;-82
2021/10/15 00:09:17;;;;;;;0.00;0.00;;;12.80;99.90;;;;;;6323118;22;20019;-82
2021/10/15 00:11:45;;;;;;;0.00;0.00;;;12.70;99.90;;;;;;6272615;22;20340;-82
2021/10/15 00:14:13;;;;;;;0.10;0.10;;;12.80;99.90;;;;;;6298101;22;20022;-82
2021/10/15 00:16:40;;;;;;;0.00;0.00;;;12.70;99.90;;;;;;6272595;22;20022;-82
2021/10/15 00:19:06;;;;;;;0.00;0.00;;;12.70;99.90;;;;;;6247539;22;20011;-83
2021/10/15 00:21:33;;;;;;;0.00;0.00;;;12.70;99.90;;;;;;6297769;22;20030;-82
2021/10/15 00:24:00;;;;;;;0.00;0.00;;;12.70;99.90;;;;;;6272614;22;20041;-82
2021/10/15 00:26:26;;;;;;;0.10;0.10;;;12.70;99.90;;;;;;6272280;22;20020;-82
2021/10/15 00:28:53;;;;;;;0.00;0.00;;;12.70;99.90;;;;;;6247608;22;20138;-82
2021/10/15 00:31:20;;;;;;;0.25;0.17;;;12.70;99.90;;;;;;6297611;22;20094;-82
2021/10/15 00:33:46;;;;;;;0.00;0.00;;;12.70;99.90;;;;;;6272359;22;20859;-82
2021/10/15 00:36:13;;;;;;;0.10;0.10;;;12.70;99.90;;;;;;6297397;22;20129;-82
2021/10/15 00:38:40;;;;;;;0.00;0.00;;;12.70;99.90;;;;;;6272127;22;20019;-82
2021/10/15 00:41:08;;;;;;;0.10;0.10;;;12.70;99.90;;;;;;6323231;22;20445;-82
2021/10/15 00:43:34;;;;;;;0.00;0.00;;;12.70;99.90;;;;;;6247856;22;20474;-82
2021/10/15 00:46:01;;;;;;;0.00;0.00;;;12.70;99.90;;;;;;6323133;22;20023;-82
2021/10/15 00:48:28;;;;;;;0.00;0.00;;;12.70;99.90;;;;;;6322886;22;20105;-82
2021/10/15 00:50:55;;;;;;;0.00;0.00;;;12.70;99.90;;;;;;6247492;22;20015;-82
2021/10/15 00:53:21;;;;;;;0.10;0.10;;;12.70;99.90;;;;;;6247363;22;20022;-82
2021/10/15 00:55:48;;;;;;;0.00;0.00;;;12.70;99.90;;;;;;6247343;22;20410;-82
2021/10/15 00:58:15;;;;;;;0.75;0.40;;;12.70;99.90;;;;;;6322692;22;20054;-82
2021/10/15 01:00:42;;;;;;;0.35;0.25;;;12.70;99.90;;;;;;6247326;22;20025;-81
2021/10/15 01:03:08;;;;;;;0.10;0.10;;;12.80;99.90;;;;;;6297774;22;20015;-82
2021/10/15 01:05:35;;;;;;;0.00;0.00;;;12.70;99.90;;;;;;6323424;22;20144;-82
2021/10/15 01:08:02;;;;;;;0.00;0.00;;;12.80;99.90;;;;;;6297741;22;20019;-82
2021/10/15 01:10:29;;;;;;;0.00;0.00;;;12.80;99.90;;;;;;6247114;22;20098;-82
2021/10/15 01:12:57;;;;;;;0.00;0.00;;;12.80;99.90;;;;;;6272327;22;20043;-82
2021/10/15 01:15:24;;;;;;;0.00;0.00;;;12.80;99.90;;;;;;6297145;22;20351;-82
2021/10/15 01:17:50;;;;;;;0.00;0.00;;;12.80;99.90;;;;;;6247328;22;20022;-81
2021/10/15 01:20:17;;;;;;;0.00;0.00;;;12.80;99.90;;;;;;6297356;22;20023;-82
2021/10/15 01:22:44;;;;;;;0.22;0.22;;;12.80;99.90;;;;;;6297420;22;20054;-82
2021/10/15 01:25:11;;;;;;;0.00;0.00;;;12.80;99.90;;;;;;6297651;22;20108;-82
2021/10/15 01:27:38;;;;;;;0.20;0.20;;;12.80;99.90;;;;;;6322741;22;20047;-82
2021/10/15 01:30:06;;;;;;;0.00;0.00;;;12.80;99.90;;;;;;6297483;22;20101;-82
2021/10/15 01:32:33;;;;;;;0.00;0.00;;;12.80;99.90;;;;;;6247450;22;20012;-82
2021/10/15 01:35:00;;;;;;;0.17;0.17;;;12.80;99.90;;;;;;6271980;22;20478;-82
2021/10/15 01:37:27;;;;;;;0.00;0.00;;;12.80;99.90;;;;;;6296782;22;20026;-83
2021/10/15 01:39:53;;;;;;;0.10;0.10;;;12.80;99.90;;;;;;6323066;22;20023;-82
2021/10/15 01:45:05;;;;;;;0.10;0.10;;;12.80;99.90;;;;;;6301963;22;20019;-82
2021/10/15 01:47:32;;;;;;;0.00;0.00;;;12.80;99.90;;;;;;6271837;22;20037;-82
2021/10/15 01:49:59;;;;;;;0.00;0.00;;;12.80;99.90;;;;;;6297394;22;20015;-82
2021/10/15 01:52:26;;;;;;;0.00;0.00;;;12.80;99.90;;;;;;6246949;22;20030;-82
2021/10/15 01:54:52;;;;;;;0.00;0.00;;;12.80;99.90;;;;;;6246515;22;20019;-82
2021/10/15 01:57:19;;;;;;;0.10;0.08;;;12.80;99.90;;;;;;6246819;22;20035;-81
2021/10/15 01:59:46;;;;;;;0.00;0.00;;;12.80;99.90;;;;;;6272265;22;20019;-82
2021/10/15 02:02:12;;;;;;;0.00;0.00;;;12.80;99.90;;;;;;6248344;22;20017;-81
2021/10/15 02:04:39;;;;;;;0.00;0.00;;;12.80;99.90;;;;;;6249050;22;20019;-81
2021/10/15 02:07:06;;;;;;;0.00;0.00;;;12.80;99.90;;;;;;6299383;22;20444;-82
2021/10/15 02:09:32;;;;;;;0.00;0.00;;;12.80;99.90;;;;;;6248873;22;20019;-82
2021/10/15 02:12:02;;;;;;;0.10;0.10;;;12.80;99.90;;;;;;6248566;22;20015;-82
2021/10/15 02:14:30;;;;;;;0.00;0.00;;;12.80;99.90;;;;;;6299488;22;20015;-83
2021/10/15 02:16:57;;;;;;;0.13;0.10;;;12.80;99.90;;;;;;6299053;22;20193;-82
2021/10/15 02:19:24;;;;;;;0.05;0.05;;;12.70;99.90;;;;;;6248609;22;20535;-82
2021/10/15 02:21:51;;;;;;;0.10;0.10;;;12.70;99.90;;;;;;6299223;22;20020;-82
2021/10/15 02:24:18;;;;;;;0.10;0.10;;;12.70;99.90;;;;;;6273644;22;20121;-82
2021/10/15 02:26:44;;;;;;;0.03;0.03;;;12.70;99.90;;;;;;6273777;22;20105;-82
2021/10/15 02:29:11;;;;;;;0.17;0.17;;;12.70;99.90;;;;;;6248455;22;20019;-82
2021/10/15 02:31:38;;;;;;;0.32;0.20;;;12.60;99.90;;;;;;6273297;22;20344;-82
2021/10/15 02:36:50;;;;;;;0.10;0.10;;;12.60;99.90;;;;;;6324279;22;20447;-82
2021/10/15 02:39:17;;;;;;;0.13;0.10;;;12.60;99.90;;;;;;6273656;22;20019;-82
2021/10/15 02:41:44;;;;;;;0.10;0.03;;;12.70;99.90;;;;;;6273490;22;20019;-82
2021/10/15 02:44:13;;;;;;;0.10;0.10;;;12.70;99.90;;;;;;6298875;22;20447;-82
2021/10/15 02:46:40;;;;;;;0.00;0.00;;;12.70;99.90;;;;;;6298771;22;20015;-82
2021/10/15 02:49:08;;;;;;;0.00;0.00;;;12.60;99.90;;;;;;6324336;22;20015;-81
2021/10/15 02:51:35;;;;;;;0.00;0.00;;;12.70;99.90;;;;;;6273476;22;20015;-82
2021/10/15 02:54:02;;;;;;;0.40;0.32;;;12.70;99.90;;;;;;6298470;22;20049;-82
2021/10/15 02:56:29;;;;;;;0.03;0.03;;;12.70;99.90;;;;;;6298326;22;20011;-81
2021/10/15 02:58:56;;;;;;;0.00;0.00;;;12.70;99.90;;;;;;6298743;22;20086;-81
2021/10/15 03:01:23;;;;;;;0.00;0.00;;;12.70;99.90;;;;;;6298340;22;20050;-83
2021/10/15 03:03:50;;;;;;;0.08;0.08;;;12.70;99.90;;;;;;6298830;22;20026;-81
2021/10/15 03:06:17;;;;;;;0.00;0.00;;;12.70;99.90;;;;;;6273482;22;20019;-82
2021/10/15 03:08:44;;;;;;;0.17;0.10;;;12.70;99.90;;;;;;6298048;22;20025;-82
2021/10/15 03:11:10;;;;;;;0.00;0.00;;;12.70;99.90;;;;;;6273325;22;20015;-82
2021/10/15 03:13:37;;;;;;;0.10;0.10;;;12.70;99.90;;;;;;6298342;22;20015;-82
2021/10/15 03:16:04;;;;;;;0.00;0.00;;;12.70;99.90;;;;;;6273242;22;20034;-82
2021/10/15 03:18:31;;;;;;;0.40;0.28;;;12.70;99.90;;;;;;6273115;22;20030;-83
2021/10/15 03:20:57;;;;;;;0.03;0.03;;;12.70;99.90;;;;;;6298362;22;20076;-83
2021/10/15 03:23:24;;;;;;;0.20;0.20;;;12.70;99.90;;;;;;6298548;22;20019;-83
2021/10/15 03:25:51;;;;;;;0.00;0.00;;;12.70;99.90;;;;;;6273203;22;20051;-83
2021/10/15 03:28:17;;;;;;;0.10;0.10;;;12.80;99.90;;;;;;6273264;22;20022;-83
2021/10/15 03:30:44;;;;;;;0.00;0.00;;;12.70;99.90;;;;;;6247675;22;20451;-83
2021/10/15 03:33:11;;;;;;;0.00;0.00;;;12.70;99.90;;;;;;6272842;22;20102;-83
2021/10/15 03:35:37;;;;;;;0.00;0.00;;;12.70;99.90;;;;;;6273107;22;20011;-83
2021/10/15 03:38:04;;;;;;;0.40;0.10;;;12.70;99.90;;;;;;6275404;22;20147;-82
2021/10/15 03:40:31;;;;;;;0.00;0.00;;;12.70;99.90;;;;;;6242267;22;20019;-83
2021/10/15 03:42:58;;;;;;;0.10;0.10;;;12.80;99.90;;;;;;6242505;22;20341;-83
2021/10/15 03:45:24;;;;;;;0.00;0.00;;;12.70;99.90;;;;;;6242723;22;20742;-83
2021/10/15 03:47:51;;;;;;;0.00;0.00;;;12.80;99.90;;;;;;6242430;22;20089;-83
2021/10/15 03:50:18;;;;;;;0.00;0.00;;;12.80;99.90;;;;;;6242496;22;20038;-83
2021/10/15 03:52:44;;;;;;;0.10;0.10;;;12.80;99.90;;;;;;6242117;22;20013;-83
2021/10/15 03:55:13;;;;;;;0.00;0.00;;;12.80;99.90;;;;;;6242299;22;20012;-83
2021/10/15 03:57:40;;;;;;;0.00;0.00;;;12.80;99.90;;;;;;6267374;22;20008;-83
2021/10/15 04:00:10;;;;;;;0.00;0.00;;;12.80;99.90;;;;;;6267527;22;20021;-83
2021/10/15 04:02:42;;;;;;;0.10;0.10;;;12.90;99.90;;;;;;6292657;22;20091;-83
2021/10/15 04:05:10;;;;;;;0.00;0.00;;;12.80;99.90;;;;;;6292830;22;20015;-83
2021/10/15 04:07:37;;;;;;;0.10;0.10;;;12.80;99.90;;;;;;6267239;22;20019;-83
2021/10/15 04:10:06;;;;;;;0.10;0.10;;;12.80;99.90;;;;;;6267458;22;20364;-83
2021/10/15 04:12:33;;;;;;;0.00;0.00;;;12.90;99.90;;;;;;6267053;22;20024;-83
2021/10/15 04:15:01;;;;;;;0.00;0.00;;;12.90;99.90;;;;;;6242365;22;20399;-83
2021/10/15 04:17:28;;;;;;;0.00;0.00;;;12.90;99.90;;;;;;6242409;22;20026;-82
2021/10/15 04:19:55;;;;;;;1.25;0.20;;;12.90;99.90;;;;;;6241834;22;20492;-82
2021/10/15 04:22:24;;;;;;;0.30;0.30;;;12.90;99.90;;;;;;6242033;22;20349;-82
2021/10/15 04:24:51;;;;;;;0.00;0.00;;;12.90;99.90;;;;;;6292593;22;20024;-82
2021/10/15 04:27:17;;;;;;;0.00;0.00;;;12.90;99.90;;;;;;6267136;22;20015;-82
2021/10/15 04:29:44;;;;;;;0.32;0.32;;;12.90;99.90;;;;;;6266250;22;20189;-82
2021/10/15 04:32:11;;;;;;;0.10;0.10;;;13.00;99.90;;;;;;6266503;22;20024;-82
2021/10/15 04:34:37;;;;;;;0.00;0.00;;;13.00;99.90;;;;;;6242282;22;20012;-83
2021/10/15 04:37:04;;;;;;;0.00;0.00;;;13.00;99.90;;;;;;6242366;22;20066;-82
2021/10/15 04:39:31;;;;;;;0.00;0.00;;;13.00;99.90;;;;;;6272712;22;20047;-82
2021/10/15 04:41:58;;;;;;;0.00;0.00;;;13.00;99.90;;;;;;6247371;22;20394;-82
2021/10/15 04:44:24;;;;;;;0.00;0.00;;;13.00;99.90;;;;;;6297724;22;20022;-82
2021/10/15 04:46:51;;;;;;;0.22;0.05;;;13.00;99.90;;;;;;6247201;22;20023;-81
2021/10/15 04:49:18;;;;;;;0.00;0.00;;;13.00;99.90;;;;;;6272507;22;20050;-82
2021/10/15 04:51:45;;;;;;;0.00;0.00;;;12.90;99.90;;;;;;6272325;22;20018;-82
2021/10/15 04:54:12;;;;;;;0.00;0.00;;;12.90;99.90;;;;;;6272584;22;20463;-82
2021/10/15 04:56:38;;;;;;;0.00;0.00;;;12.80;99.90;;;;;;6322793;22;20011;-82
2021/10/15 04:59:05;;;;;;;0.10;0.10;;;12.80;99.90;;;;;;6297649;22;20015;-81
2021/10/15 05:01:32;;;;;;;0.00;0.00;;;12.80;99.90;;;;;;6247469;22;20051;-81
2021/10/15 05:03:58;;;;;;;0.00;0.00;;;12.70;99.90;;;;;;6247284;22;20019;-81
2021/10/15 05:06:25;;;;;;;0.00;0.00;;;12.70;99.90;;;;;;6297499;22;20015;-81
2021/10/15 05:11:33;;;;;;;0.00;0.00;;;12.60;99.90;;;;;;6278518;22;20028;-81
2021/10/15 05:14:01;;;;;;;0.00;0.00;;;12.60;99.90;;;;;;6297280;22;20019;-81
2021/10/15 05:16:27;;;;;;;0.00;0.00;;;12.60;99.90;;;;;;6297559;22;20389;-80
2021/10/15 05:18:54;;;;;;;0.65;0.20;;;12.60;99.90;;;;;;6246877;22;20053;-80
2021/10/15 05:21:21;;;;;;;0.10;0.10;;;12.50;99.90;;;;;;6297702;22;20019;-80
2021/10/15 05:23:47;;;;;;;0.00;0.00;;;12.50;99.90;;;;;;6272152;22;20107;-81
2021/10/15 05:26:14;;;;;;;0.00;0.00;;;12.50;99.90;;;;;;6247301;22;20022;-80
2021/10/15 05:28:41;;;;;;;0.00;0.00;;;12.50;99.90;;;;;;6246933;22;20026;-82
2021/10/15 05:31:07;;;;;;;0.00;0.00;;;12.30;99.90;;;;;;6247117;22;20467;-80
2021/10/15 05:33:34;;;;;;;0.00;0.00;;;12.10;99.90;;;;;;6322597;22;20430;-80
2021/10/15 05:36:01;;;;;;;0.05;0.05;;;12.00;99.90;;;;;;6246808;22;20098;-80
2021/10/15 05:38:27;;;;;;;0.00;0.00;;;11.80;99.90;;;;;;6273874;22;20016;-80
2021/10/15 05:40:54;;;;;;;0.00;0.00;;;11.70;99.90;;;;;;6248536;22;20037;-80
2021/10/15 05:43:21;;;;;;;0.00;0.00;;;11.50;99.90;;;;;;6273957;22;20055;-80
2021/10/15 05:45:48;;;;;;;0.00;0.00;;;11.40;99.90;;;;;;6298701;22;20043;-80
2021/10/15 05:48:14;;;;;;;0.00;0.00;;;11.30;99.90;;;;;;6248901;22;20021;-80
2021/10/15 05:50:42;;;;;;;0.00;0.00;;;11.20;99.90;;;;;;6299261;22;20079;-80
2021/10/15 05:53:12;;;;;;;0.10;0.10;;;11.20;99.90;;;;;;6299931;22;20443;-80
2021/10/15 06:00:53;;;;;;;0.03;0.03;;;11.00;99.90;;;;;;6281067;22;20027;-80
2021/10/15 06:03:24;;;;;;;0.00;0.00;;;10.90;99.90;;;;;;6248961;22;20451;-80
2021/10/15 06:14:31;;;;;;;0.00;0.00;;;10.90;99.90;;;;;;6271053;22;20022;-80
2021/10/15 06:17:06;;;;;;;0.00;0.00;;;10.90;99.90;;;;;;6288310;22;20093;-79
2021/10/15 06:22:21;;;;;;;0.00;0.00;;;10.80;99.90;;;;;;6324436;22;20026;-80
2021/10/15 06:24:49;;;;;;;0.00;0.00;;;10.80;99.90;;;;;;6273643;22;20026;-80
2021/10/15 06:27:21;;;;;;;0.10;0.10;;;10.70;99.90;;;;;;6298655;22;20324;-81
2021/10/15 06:29:51;;;;;;;0.10;0.10;;;10.70;99.90;;;;;;6323425;22;20072;-80
2021/10/15 06:32:19;;;;;;;0.00;0.00;;;10.60;99.90;;;;;;6298365;22;20046;-80
2021/10/15 06:34:47;;;;;;;0.00;0.00;;;10.60;99.90;;;;;;6273883;22;20018;-80
2021/10/15 06:37:13;;;;;;;0.45;0.13;;;10.60;99.90;;;;;;6273089;22;20015;-80
2021/10/15 06:39:40;;;;;;;0.00;0.00;;;10.60;99.90;;;;;;6323534;22;20058;-80
2021/10/15 06:42:07;;;;;;;0.00;0.00;;;10.60;99.90;;;;;;6297113;22;20019;-80
2021/10/15 06:44:34;;;;;;;0.00;0.00;;;10.60;99.90;;;;;;6248433;22;20057;-80
2021/10/15 06:47:01;;;;;;;0.00;0.00;;;10.50;99.90;;;;;;6272880;22;20524;-79
2021/10/15 06:49:27;;;;;;;0.00;0.00;;;10.50;99.90;;;;;;6273465;22;20101;-79
2021/10/15 06:51:54;;;;;;;0.00;0.00;;;10.60;99.90;;;;;;6297597;22;20015;-79
2021/10/15 06:54:21;;;;;;;0.00;0.00;;;10.50;99.90;;;;;;6298571;22;20089;-80
2021/10/15 06:56:48;;;;;;;0.00;0.00;;;10.50;99.90;;;;;;6248525;22;20011;-80
2021/10/15 06:59:14;;;;;;;0.00;0.00;;;10.50;99.90;;;;;;6298550;22;20029;-80
2021/10/15 07:01:41;;;;;;;0.00;0.00;;;10.50;99.90;;;;;;6298660;22;20014;-80
2021/10/15 07:04:08;;;;;;;0.00;0.00;;;10.50;99.90;;;;;;6248134;22;20026;-79
2021/10/15 07:06:35;;;;;;;0.00;0.00;;;10.50;99.90;;;;;;6272881;22;20064;-79
2021/10/15 07:09:03;;;;;;;0.00;0.00;;;10.50;99.90;;;;;;6247661;22;20022;-80
2021/10/15 07:11:38;;;;;;;0.00;0.00;;;10.50;99.90;;;;;;6298733;22;20012;-80
2021/10/15 07:14:05;;;;;;;0.00;0.00;;;10.50;99.90;;;;;;6274481;22;20447;-80
2021/10/15 07:16:32;;;;;;;0.00;0.00;;;10.60;99.90;;;;;;6249491;22;20382;-80
2021/10/15 07:18:59;;;;;;;0.00;0.00;;;10.60;99.90;;;;;;6298121;22;20026;-80
2021/10/15 07:21:26;;;;;;;0.00;0.00;;;10.60;99.90;;;;;;6272872;22;20015;-80
2021/10/15 07:23:54;;;;;;;0.05;0.05;;;10.60;99.90;;;;;;6273173;22;20050;-80
2021/10/15 07:26:21;;;;;;;0.00;0.00;;;10.60;99.90;;;;;;6273372;22;20019;-80
2021/10/15 07:28:48;;;;;;;0.00;0.00;;;10.60;99.90;;;;;;6323560;22;20051;-80
2021/10/15 07:31:15;;;;;;;0.00;0.00;;;10.60;99.90;;;;;;6273203;22;20681;-80
2021/10/15 07:33:42;;;;;;;0.03;0.03;;;10.60;99.90;;;;;;6298343;22;20018;-79
2021/10/15 07:36:09;;;;;;;0.00;0.00;;;10.60;99.90;;;;;;6298260;22;20019;-80
2021/10/15 07:38:37;;;;;;;0.00;0.00;;;10.60;99.90;;;;;;6297939;22;20034;-80
2021/10/15 07:41:04;;;;;;;0.00;0.00;;;10.70;99.90;;;;;;6272999;22;20109;-79
2021/10/15 07:43:31;;;;;;;0.10;0.10;;;10.70;99.90;;;;;;6273046;22;20015;-80
2021/10/15 07:45:58;;;;;;;0.00;0.00;;;10.70;99.90;;;;;;6273119;22;20094;-78
2021/10/15 07:48:25;;;;;;;0.00;0.00;;;10.70;99.90;;;;;;6272670;22;20019;-79
2021/10/15 07:50:51;;;;;;;0.00;0.00;;;10.70;99.90;;;;;;6272427;22;20046;-80
2021/10/15 07:53:18;;;;;;;0.00;0.00;;;10.70;99.90;;;;;;6247515;22;20396;-80
2021/10/15 07:55:45;;;;;;;0.00;0.00;;;10.50;99.90;;;;;;6323577;22;20010;-79
2021/10/15 07:58:12;;;;;;;0.00;0.00;;;10.50;99.90;;;;;;6272696;22;20012;-79
2021/10/15 08:00:40;;;;;;;0.00;0.00;;;10.30;99.90;;;;;;6297676;22;20022;-79
2021/10/15 08:03:07;;;;;;;0.00;0.00;;;10.30;99.90;;;;;;6297761;22;20022;-78
2021/10/15 08:05:33;;;;;;;0.00;0.00;;;10.30;99.90;;;;;;6247650;22;20055;-80
2021/10/15 08:08:00;;;;;;;0.00;0.00;;;10.20;99.90;;;;;;6247449;22;20098;-80
2021/10/15 08:10:27;;;;;;;0.00;0.00;;;10.20;99.90;;;;;;6247195;22;20019;-80
2021/10/15 08:12:53;;;;;;;0.00;0.00;;;10.30;99.90;;;;;;6323240;22;20020;-80
2021/10/15 08:15:21;;;;;;;0.00;0.00;;;10.30;99.90;;;;;;6273362;22;20015;-80
2021/10/15 08:17:48;;;;;;;0.00;0.00;;;10.40;99.90;;;;;;6247423;22;20015;-80
2021/10/15 08:20:19;;;;;;;0.00;0.00;;;10.50;99.90;;;;;;6297369;22;20090;-79
2021/10/15 08:22:52;;;;;;;0.00;0.00;;;10.60;99.90;;;;;;6297851;22;20022;-79
2021/10/15 08:25:18;;;;;;;0.00;0.00;;;10.70;99.90;;;;;;6297158;22;20344;-78
2021/10/15 08:27:45;;;;;;;0.00;0.00;;;10.80;99.90;;;;;;6272078;22;20015;-81
2021/10/15 08:30:12;;;;;;;0.00;0.00;;;10.80;99.90;;;;;;6296974;22;20102;-77
2021/10/15 08:32:39;;;;;;;0.00;0.00;;;10.80;99.90;;;;;;6247352;22;20016;-79
2021/10/15 08:35:09;;;;;;;0.00;0.00;;;10.90;99.90;;;;;;6272280;22;20022;-81
2021/10/15 08:37:37;;;;;;;0.00;0.00;;;11.00;99.90;;;;;;6273143;22;20026;-84
2021/10/15 08:40:06;;;;;;;0.00;0.00;;;11.20;99.90;;;;;;6272485;22;20093;-84
2021/10/15 08:42:33;;;;;;;0.00;0.00;;;11.20;99.90;;;;;;6297834;22;20462;-83
2021/10/15 08:45:00;;;;;;;0.00;0.00;;;11.10;99.90;;;;;;6297457;22;20019;-81
2021/10/15 08:47:27;;;;;;;0.00;0.00;;;11.20;99.90;;;;;;6247573;22;20022;-82
2021/10/15 08:49:53;;;;;;;0.00;0.00;;;11.10;99.90;;;;;;6247281;22;20030;-83
2021/10/15 08:52:20;;;;;;;0.00;0.00;;;11.20;99.90;;;;;;6297097;22;20067;-84
2021/10/15 08:54:47;;;;;;;0.00;0.00;;;11.20;99.90;;;;;;6297567;22;20094;-84
2021/10/15 08:57:15;;;;;;;0.00;0.00;;;11.20;99.90;;;;;;6322743;22;20022;-83
2021/10/15 08:59:44;;;;;;;0.00;0.00;;;11.30;99.90;;;;;;6297803;22;20339;-84
2021/10/15 09:02:15;;;;;;;0.00;0.00;;;11.40;99.90;;;;;;6297172;22;20019;-84
2021/10/15 09:04:52;;;;;;;0.00;0.00;;;11.50;99.90;;;;;;6297514;22;20394;-82
2021/10/15 09:07:21;;;;;;;0.00;0.00;;;11.60;99.90;;;;;;6274516;22;20026;-79
2021/10/15 09:10:10;;;;;;;0.00;0.00;;;11.70;99.90;;;;;;6298104;22;20364;-79
2021/10/15 09:12:45;;;;;;;0.00;0.00;;;11.80;99.90;;;;;;6299496;22;20025;-82
2021/10/15 09:15:13;;;;;;;0.00;0.00;;;11.80;99.90;;;;;;6299166;22;20348;-85
2021/10/15 09:17:50;;;;;;;0.00;0.00;;;12.00;99.90;;;;;;6299513;22;20325;-85
2021/10/15 09:20:36;;;;;;;0.00;0.00;;;12.10;99.90;;;;;;6250175;22;20007;-91
2021/10/15 09:23:13;;;;;;;0.00;0.00;;;12.30;99.90;;;;;;6300865;22;20035;-89
2021/10/15 09:25:45;;;;;;;0.00;0.00;;;12.30;99.90;;;;;;6274919;22;20021;-87
2021/10/15 09:28:20;;;;;;;0.00;0.00;;;12.10;99.90;;;;;;6274880;22;20030;-81
2021/10/15 09:30:49;;;;;;;0.00;0.00;;;11.90;99.90;;;;;;6300037;22;20077;-88
2021/10/15 09:33:18;;;;;;;0.00;0.00;;;11.70;99.90;;;;;;6274955;22;20053;-87
2021/10/15 09:35:45;;;;;;;0.00;0.00;;;11.60;99.90;;;;;;6300430;22;20448;-89
2021/10/15 09:38:12;;;;;;;0.00;0.00;;;11.50;99.90;;;;;;6300249;22;20348;-86
2021/10/15 09:40:45;;;;;;;0.00;0.00;;;11.40;99.90;;;;;;6300041;22;20023;-85
2021/10/15 09:43:14;;;;;;;0.00;0.00;;;11.40;99.90;;;;;;6326158;22;20340;-85
2021/10/15 09:45:49;;;;;;;0.00;0.00;;;11.40;99.90;;;;;;6274310;22;20016;-86
2021/10/15 09:48:24;;;;;;;0.00;0.00;;;11.50;99.90;;;;;;6298998;22;20423;-84
2021/10/15 09:51:21;;;;;;;0.00;0.00;;;11.60;99.90;;;;;;6273924;22;20348;-80
2021/10/15 09:54:12;;;;;;;0.20;0.13;;;11.70;99.90;;;;;;6274711;22;20015;-81
2021/10/15 09:56:42;;;;;;;0.00;0.00;;;11.80;99.90;;;;;;6298995;22;20015;-83
2021/10/15 09:59:09;;;;;;;0.00;0.00;;;11.80;99.90;;;;;;6274581;22;20089;-85
2021/10/15 10:01:36;;;;;;;0.00;0.00;;;12.00;99.90;;;;;;6273469;22;20019;-82
2021/10/15 10:04:08;;;;;;;0.00;0.00;;;12.10;99.90;;;;;;6275321;22;20019;-84
2021/10/15 10:06:36;;;;;;;0.00;0.00;;;12.20;99.90;;;;;;6273777;22;20072;-81
2021/10/15 10:09:04;;;;;;;0.00;0.00;;;12.30;99.90;;;;;;6248422;22;20343;-82
2021/10/15 10:11:31;;;;;;;0.00;0.00;;;12.50;99.90;;;;;;6248718;22;20019;-80
2021/10/15 10:13:58;;;;;;;0.00;0.00;;;12.60;99.90;;;;;;6299001;22;20339;-82
2021/10/15 10:16:29;;;;;;;0.00;0.00;;;12.80;99.90;;;;;;6324230;22;20019;-80
2021/10/15 10:18:59;;;;;;;0.00;0.00;;;12.90;99.90;;;;;;6298527;22;20015;-79
2021/10/15 10:21:31;;;;;;;0.00;0.00;;;12.80;99.90;;;;;;6273142;22;20026;-80
2021/10/15 10:24:21;;;;;;;0.00;0.00;;;12.60;99.90;;;;;;6274550;22;20098;-80
2021/10/15 10:26:50;;;;;;;0.00;0.00;;;12.20;99.90;;;;;;6298309;22;20023;-79
2021/10/15 10:29:17;;;;;;;0.00;0.00;;;12.00;99.90;;;;;;6323950;22;20395;-79
2021/10/15 10:31:44;;;;;;;0.00;0.00;;;11.90;99.90;;;;;;6273104;22;20355;-79
2021/10/15 10:34:21;;;;;;;0.00;0.00;;;11.70;99.90;;;;;;6298785;22;20102;-79
2021/10/15 10:37:06;;;;;;;0.00;0.00;;;11.70;99.90;;;;;;6298722;22;20007;-79
2021/10/15 10:39:35;;;;;;;0.00;0.00;;;11.70;99.90;;;;;;6323807;22;20343;-79
2021/10/15 10:42:24;;;;;;;0.00;0.00;;;11.80;99.90;;;;;;6274035;22;20351;-79
2021/10/15 10:44:53;;;;;;;0.00;0.00;;;11.90;99.90;;;;;;6299765;22;20061;-79
2021/10/15 10:47:25;;;;;;;0.00;0.00;;;12.10;99.90;;;;;;6298595;22;20054;-79
2021/10/15 10:50:09;;;;;;;0.00;0.00;;;12.20;99.90;;;;;;6273515;22;20321;-79
2021/10/15 10:53:03;;;;;;;0.00;0.00;;;12.40;99.90;;;;;;6298271;22;20101;-79
2021/10/15 10:55:43;;;;;;;0.00;0.00;;;12.40;99.90;;;;;;6323587;22;20016;-79
2021/10/15 10:58:31;;;;;;;0.00;0.00;;;12.30;99.90;;;;;;6298587;22;20090;-79
2021/10/15 11:01:18;;;;;;;0.00;0.00;;;12.00;99.90;;;;;;6298518;22;20439;-79
2021/10/15 11:03:45;;;;;;;0.00;0.00;;;11.90;99.90;;;;;;6298140;22;20023;-79
2021/10/15 11:06:12;;;;;;;0.00;0.00;;;11.90;99.90;;;;;;6273520;22;20404;-80
2021/10/15 11:08:40;;;;;;;0.00;0.00;;;12.00;99.90;;;;;;6323827;22;20026;-80
2021/10/15 11:11:19;;;;;;;0.00;0.00;;;12.00;99.90;;;;;;6273731;22;20023;-79
2021/10/15 11:13:46;;;;;;;0.00;0.00;;;12.10;99.90;;;;;;6323302;22;20068;-80
2021/10/15 11:16:25;;;;;;;0.00;0.00;;;12.20;99.90;;;;;;6272862;22;20051;-83
2021/10/15 11:18:52;;;;;;;0.00;0.00;;;12.40;99.90;;;;;;6297754;22;20012;-81
2021/10/15 11:21:20;;;;;;;0.00;0.00;;;12.40;99.90;;;;;;6273120;22;20452;-85
2021/10/15 11:23:48;;;;;;;0.00;0.00;;;12.60;99.90;;;;;;6272929;22;20011;-85
2021/10/15 11:26:15;;;;;;;0.00;0.00;;;12.80;99.90;;;;;;6272853;22;20101;-84
2021/10/15 11:28:42;;;;;;;0.00;0.00;;;13.00;99.90;;;;;;6323715;22;20073;-83
2021/10/15 11:31:13;;;;;;;0.00;0.00;;;13.00;99.90;;;;;;6298068;22;20019;-82
2021/10/15 11:33:40;;;;;;;0.00;0.00;;;13.10;99.90;;;;;;6297571;22;20022;-83
2021/10/15 11:36:07;;;;;;;0.00;0.00;;;13.00;99.90;;;;;;6272430;22;20011;-83
2021/10/15 11:38:34;;;;;;;0.00;0.00;;;13.00;99.90;;;;;;6297823;22;20329;-83
2021/10/15 11:41:09;;;;;;;0.00;0.00;;;12.90;99.90;;;;;;6298197;22;20034;-86
2021/10/15 11:43:38;;;;;;;0.00;0.00;;;12.80;99.90;;;;;;6297516;22;20480;-82
2021/10/15 11:46:08;;;;;;;0.00;0.00;;;12.80;99.90;;;;;;6298096;22;20019;-82
2021/10/15 11:48:37;;;;;;;0.00;0.00;;;12.80;99.90;;;;;;6297847;22;20317;-83
2021/10/15 11:51:06;;;;;;;0.00;0.00;;;12.80;99.90;;;;;;6272683;22;20062;-82
2021/10/15 11:53:42;;;;;;;0.00;0.00;;;12.80;99.90;;;;;;6297929;22;20023;-82
2021/10/15 11:56:14;;;;;;;0.00;0.00;;;12.80;99.90;;;;;;6297710;22;20015;-82
2021/10/15 11:58:43;;;;;;;0.00;0.00;;;12.90;99.90;;;;;;6297831;22;20061;-82
2021/10/15 12:01:16;;;;;;;0.00;0.00;;;12.80;99.90;;;;;;6323403;22;20494;-82
2021/10/15 12:03:52;;;;;;;0.00;0.00;;;12.90;99.90;;;;;;6297774;22;20093;-82
2021/10/15 12:06:24;;;;;;;0.08;0.08;;;13.00;99.90;;;;;;6323491;22;20448;-82
2021/10/15 12:08:54;;;;;;;0.00;0.00;;;12.90;99.90;;;;;;6297613;22;20015;-82
2021/10/15 12:11:25;;;;;;;0.00;0.00;;;12.90;99.90;;;;;;6297643;22;20459;-82
2021/10/15 12:13:52;;;;;;;0.00;0.00;;;12.90;99.90;;;;;;6297512;22;20160;-82
2021/10/15 12:16:27;;;;;;;0.00;0.00;;;12.80;99.90;;;;;;6272654;22;20013;-82
2021/10/15 12:19:20;;;;;;;0.00;0.00;;;12.80;99.90;;;;;;6323248;22;20053;-82
2021/10/15 12:21:59;;;;;;;0.38;0.10;;;12.90;99.90;;;;;;6306432;22;20418;-82
2021/10/15 12:24:29;;;;;;;0.00;0.00;;;13.00;99.90;;;;;;6297610;22;20019;-82
2021/10/15 12:27:06;;;;;;;0.00;0.00;;;13.10;99.90;;;;;;6323058;22;20019;-82
2021/10/15 12:29:49;;;;;;;0.00;0.00;;;13.00;99.90;;;;;;6297725;22;20470;-82
2021/10/15 12:32:25;;;;;;;0.00;0.00;;;12.90;99.90;;;;;;6297521;22;20058;-82
2021/10/15 12:35:15;;;;;;;0.00;0.00;;;12.80;99.90;;;;;;6272607;22;20109;-82
2021/10/15 12:37:57;;;;;;;0.00;0.00;;;12.90;99.90;;;;;;6296866;22;20038;-82
2021/10/15 12:40:42;;;;;;;0.00;0.00;;;12.80;99.90;;;;;;6297796;22;20110;-82
2021/10/15 12:43:12;;;;;;;0.00;0.00;;;12.90;99.90;;;;;;6297726;22;20011;-82
2021/10/15 12:45:40;;;;;;;0.00;0.00;;;13.00;99.90;;;;;;6322542;22;20054;-83
2021/10/15 12:48:09;;;;;;;0.00;0.00;;;13.00;99.90;;;;;;6297505;22;20094;-82
2021/10/15 12:50:39;;;;;;;0.00;0.00;;;13.00;99.90;;;;;;6296947;22;20015;-83
2021/10/15 12:53:17;;;;;;;0.00;0.00;;;12.90;99.90;;;;;;6297504;22;20015;-82
2021/10/15 12:56:00;;;;;;;0.00;0.00;;;12.90;99.90;;;;;;6297145;22;20015;-81
2021/10/15 12:58:28;;;;;;;0.00;0.00;;;12.90;99.90;;;;;;6297599;22;20513;-82
2021/10/15 13:01:02;;;;;;;0.00;0.00;;;12.80;99.90;;;;;;6297108;22;20015;-82
2021/10/15 13:03:30;;;;;;;0.10;0.10;;;12.70;99.90;;;;;;6323086;22;20121;-82
2021/10/15 13:05:59;;;;;;;0.00;0.00;;;12.60;99.90;;;;;;6297576;22;20046;-82
2021/10/15 13:08:27;;;;;;;0.00;0.00;;;12.50;99.90;;;;;;6297328;22;20061;-82
2021/10/15 13:10:55;;;;;;;0.00;0.00;;;12.40;99.90;;;;;;6322528;22;20020;-82
2021/10/15 13:13:22;;;;;;;0.00;0.00;;;12.30;99.90;;;;;;6272112;22;20019;-82
2021/10/15 13:15:49;;;;;;;0.00;0.00;;;12.20;99.90;;;;;;6297231;22;20047;-82
2021/10/15 13:18:15;;;;;;;0.00;0.00;;;12.10;99.90;;;;;;6271697;22;20046;-82
2021/10/15 13:20:44;;;;;;;1.55;1.02;;;12.10;99.90;;;;;;6271848;22;20089;-82
2021/10/15 13:23:12;;;;;;;0.00;0.00;;;12.10;99.90;;;;;;6273097;22;20095;-82